Time;durP1;ratioP1;P1;durP2;ratioP2;P2;SDS_P1;SDS_P2;PMS_P1;PMS_P2;Temp;Humidity;BMP_temperature;BMP_pressure;BME280_temperature;BME280_humidity;BME280_pressure;Samples;Min_cycle;Max_cycle;Signal;HPM_P1;HPM_P2
2022/09/11 11:32:01;;;;;;;6.80;5.15;;;22.30;99.90;;;;;;5150200;27;20938;-62
2022/09/11 11:34:37;;;;;;;6.50;5.87;;;22.30;99.90;;;;;;5130694;27;20583;-66
2022/09/11 11:37:10;;;;;;;5.70;5.30;;;22.50;99.90;;;;;;5130676;27;21041;-64
2022/09/11 11:39:43;;;;;;;5.60;5.20;;;22.50;99.90;;;;;;5131367;27;20445;-65
2022/09/11 11:42:16;;;;;;;9.00;5.63;;;22.50;99.90;;;;;;5130188;27;20444;-65
2022/09/11 11:44:48;;;;;;;5.83;5.33;;;22.60;99.90;;;;;;5131105;27;20535;-65
2022/09/11 11:47:18;;;;;;;5.93;5.40;;;22.60;99.90;;;;;;5130775;27;20460;-65
2022/09/11 11:49:59;;;;;;;6.50;5.70;;;22.60;99.90;;;;;;5130661;27;20483;-65
2022/09/11 11:52:43;;;;;;;5.97;5.43;;;22.60;99.90;;;;;;5145524;27;20442;-65
2022/09/11 11:55:17;;;;;;;5.90;5.20;;;22.60;99.90;;;;;;5149414;27;20447;-65
2022/09/11 11:57:53;;;;;;;6.00;5.33;;;22.70;99.90;;;;;;5151383;27;20523;-65
2022/09/11 12:00:21;;;;;;;5.77;5.17;;;22.70;99.90;;;;;;5150915;27;20521;-65
2022/09/11 12:02:53;;;;;;;5.53;5.03;;;22.70;99.90;;;;;;5150969;27;20453;-65
2022/09/11 12:05:23;;;;;;;6.57;5.90;;;22.70;99.90;;;;;;5130355;27;20816;-65
2022/09/11 12:07:51;;;;;;;5.47;5.00;;;22.70;99.90;;;;;;5130036;27;20436;-65
2022/09/11 12:10:22;;;;;;;5.20;4.70;;;22.80;99.90;;;;;;5130190;27;20498;-62
2022/09/11 12:12:53;;;;;;;5.43;5.00;;;22.70;99.90;;;;;;5129835;27;20443;-65
2022/09/11 12:15:22;;;;;;;9.23;6.93;;;22.70;99.90;;;;;;5130428;27;20461;-63
2022/09/11 12:18:01;;;;;;;5.83;5.40;;;22.80;99.90;;;;;;5130119;27;20433;-65
2022/09/11 12:20:36;;;;;;;6.20;5.70;;;22.80;99.90;;;;;;5129755;27;20528;-65
2022/09/11 12:23:04;;;;;;;7.23;5.30;;;22.80;99.90;;;;;;5129961;27;20446;-65
2022/09/11 12:26:05;;;;;;;5.87;5.27;;;22.80;99.90;;;;;;5132412;27;20463;-65
2022/09/11 12:28:33;;;;;;;6.33;5.80;;;22.80;99.90;;;;;;5137361;27;21003;-67
2022/09/11 12:31:03;;;;;;;5.38;4.97;;;22.80;99.90;;;;;;5149482;27;20527;-61
2022/09/11 12:33:54;;;;;;;6.33;5.80;;;22.80;99.90;;;;;;5149665;27;20688;-65
2022/09/11 12:36:32;;;;;;;7.07;6.47;;;20.70;99.90;;;;;;5129461;27;20980;-61
2022/09/11 12:39:04;;;;;;;11.33;8.90;;;23.10;99.90;;;;;;5129430;27;20440;-61
2022/09/11 12:41:33;;;;;;;14.50;8.83;;;23.20;99.90;;;;;;5124325;27;20941;-60
2022/09/11 12:44:01;;;;;;;16.17;10.03;;;23.30;99.90;;;;;;5119493;27;20795;-62
2022/09/11 12:47:11;;;;;;;10.23;7.63;;;23.40;99.90;;;;;;5136079;27;20460;-62
2022/09/11 12:49:41;;;;;;;11.90;9.57;;;23.40;99.90;;;;;;5136066;27;20447;-65
2022/09/11 12:52:24;;;;;;;8.47;7.07;;;23.30;99.90;;;;;;5135805;27;20436;-65
2022/09/11 12:54:51;;;;;;;10.17;7.47;;;23.30;99.90;;;;;;5135860;27;20521;-65
2022/09/11 12:57:26;;;;;;;10.83;9.73;;;23.30;99.90;;;;;;5121815;27;20838;-65
2022/09/11 12:59:58;;;;;;;10.90;7.93;;;23.30;99.90;;;;;;5115541;28;20473;-64
2022/09/11 13:02:35;;;;;;;8.90;7.60;;;23.30;99.90;;;;;;5115427;28;20476;-65
2022/09/11 13:05:05;;;;;;;11.90;7.20;;;23.40;99.90;;;;;;5115564;28;20953;-64
2022/09/11 13:07:40;;;;;;;10.40;7.70;;;23.40;99.90;;;;;;5115589;27;21044;-63
2022/09/11 13:10:20;;;;;;;9.00;8.10;;;23.40;99.90;;;;;;5115739;27;20548;-63
2022/09/11 13:12:54;;;;;;;8.17;7.37;;;23.40;99.90;;;;;;5115228;28;20447;-63
2022/09/11 13:15:42;;;;;;;7.90;6.67;;;23.40;99.90;;;;;;5115271;28;20540;-63
2022/09/11 13:18:28;;;;;;;8.27;6.57;;;23.50;99.90;;;;;;5115197;28;20836;-62
2022/09/11 13:21:14;;;;;;;7.03;6.13;;;23.40;99.90;;;;;;5122702;27;20445;-63
2022/09/11 13:23:41;;;;;;;8.67;6.00;;;23.50;99.90;;;;;;5135341;27;20445;-63
2022/09/11 13:26:13;;;;;;;9.70;6.83;;;23.50;99.90;;;;;;5135476;27;20457;-60
2022/09/11 13:28:46;;;;;;;7.07;6.43;;;23.50;99.90;;;;;;5132255;27;20454;-61
2022/09/11 13:31:18;;;;;;;6.53;5.93;;;23.40;99.90;;;;;;5113348;27;20455;-63
2022/09/11 13:33:49;;;;;;;6.27;5.40;;;23.50;99.90;;;;;;5116528;27;20452;-64
2022/09/11 13:36:21;;;;;;;6.33;5.73;;;23.50;99.90;;;;;;5132041;27;20468;-63
2022/09/11 13:38:53;;;;;;;8.43;6.63;;;23.50;99.90;;;;;;5114310;28;20448;-62
2022/09/11 13:41:24;;;;;;;6.30;5.67;;;23.50;99.90;;;;;;5114161;28;20442;-64
2022/09/11 13:43:55;;;;;;;9.93;6.27;;;23.60;99.90;;;;;;5119986;27;20445;-64
2022/09/11 13:46:24;;;;;;;6.57;5.93;;;23.50;99.90;;;;;;5134870;27;20464;-67
2022/09/11 13:48:55;;;;;;;8.83;7.50;;;23.50;99.90;;;;;;5134902;27;20535;-66
2022/09/11 13:52:04;;;;;;;7.10;6.30;;;23.50;99.90;;;;;;5151389;27;21053;-67
2022/09/11 13:54:34;;;;;;;6.87;6.20;;;23.40;99.90;;;;;;5151529;27;20431;-64
2022/09/11 13:57:14;;;;;;;5.90;4.97;;;23.40;99.90;;;;;;5151612;27;20524;-67
2022/09/11 13:59:46;;;;;;;7.93;7.23;;;23.40;99.90;;;;;;5151457;27;20523;-66
2022/09/11 14:02:39;;;;;;;6.50;6.00;;;23.40;99.90;;;;;;5170303;22;21211;-68
2022/09/11 14:05:12;;;;;;;6.40;5.87;;;23.40;99.90;;;;;;5050836;28;20991;-67
2022/09/11 14:07:55;;;;;;;6.63;5.70;;;23.40;99.90;;;;;;5050671;28;20448;-68
2022/09/11 14:10:26;;;;;;;6.40;5.83;;;23.40;99.90;;;;;;5049882;28;20480;-67
2022/09/11 14:13:03;;;;;;;6.47;5.80;;;23.30;99.90;;;;;;5049797;28;20464;-67
2022/09/11 14:15:38;;;;;;;5.97;5.37;;;23.30;99.90;;;;;;5051649;28;20456;-69
2022/09/11 14:18:11;;;;;;;6.60;6.00;;;23.30;99.90;;;;;;5052817;28;20452;-68
2022/09/11 14:20:42;;;;;;;6.53;5.93;;;23.30;99.90;;;;;;5052648;28;20444;-69
2022/09/11 14:23:19;;;;;;;5.77;5.27;;;23.30;99.90;;;;;;5050720;28;20470;-68
2022/09/11 14:26:09;;;;;;;6.20;5.03;;;23.30;99.90;;;;;;5049507;28;20531;-67
2022/09/11 14:28:42;;;;;;;6.43;5.83;;;23.30;99.90;;;;;;5049457;28;20440;-66
2022/09/11 14:31:12;;;;;;;10.93;7.47;;;23.30;99.90;;;;;;5049406;28;20503;-69
2022/09/11 14:33:38;;;;;;;6.67;5.97;;;23.30;99.90;;;;;;5049621;28;20472;-66
2022/09/11 14:36:13;;;;;;;6.07;5.30;;;23.30;99.90;;;;;;5049690;28;20466;-69
2022/09/11 14:38:41;;;;;;;6.13;5.63;;;23.30;99.90;;;;;;5049359;28;20536;-69
2022/09/11 14:41:08;;;;;;;5.20;4.77;;;23.30;99.90;;;;;;5049506;28;20440;-67
2022/09/11 14:43:37;;;;;;;5.07;4.67;;;23.30;99.90;;;;;;5049376;28;20522;-68
2022/09/11 14:46:04;;;;;;;5.20;4.80;;;23.30;99.90;;;;;;5049864;28;20514;-68
2022/09/11 14:48:34;;;;;;;7.33;6.00;;;23.30;99.90;;;;;;5049338;28;20450;-67
2022/09/11 14:51:05;;;;;;;5.30;4.90;;;23.30;99.90;;;;;;5049171;28;21011;-67
2022/09/11 14:53:33;;;;;;;6.37;5.77;;;23.30;99.90;;;;;;5050204;28;20529;-69
2022/09/11 14:56:03;;;;;;;5.00;4.60;;;23.30;99.90;;;;;;5049279;28;20996;-68
2022/09/11 14:58:30;;;;;;;5.37;4.97;;;23.30;99.90;;;;;;5048695;28;21072;-67
2022/09/11 15:00:57;;;;;;;5.00;4.50;;;23.30;99.90;;;;;;5049325;28;20472;-68
2022/09/11 15:03:24;;;;;;;5.17;4.73;;;23.30;99.90;;;;;;5035821;28;20547;-70
2022/09/11 15:05:55;;;;;;;5.20;4.80;;;23.30;99.90;;;;;;5034991;28;20441;-68
2022/09/11 15:08:23;;;;;;;5.50;5.00;;;23.40;99.90;;;;;;5035131;28;20468;-69
2022/09/11 15:10:52;;;;;;;4.80;4.30;;;23.40;99.90;;;;;;5035544;28;20487;-68
2022/09/11 15:13:20;;;;;;;5.07;4.67;;;23.30;99.90;;;;;;5034546;28;20912;-68
2022/09/11 15:15:47;;;;;;;4.90;4.47;;;23.40;99.90;;;;;;5034105;28;20498;-69
2022/09/11 15:18:14;;;;;;;4.00;3.70;;;23.40;99.90;;;;;;5014438;28;20876;-68
2022/09/11 15:20:41;;;;;;;5.03;4.63;;;23.40;99.90;;;;;;5014363;28;20438;-68
2022/09/11 15:23:08;;;;;;;6.10;5.60;;;23.40;99.90;;;;;;5014665;28;20470;-68
2022/09/11 15:25:35;;;;;;;4.73;4.33;;;23.40;99.90;;;;;;5014625;28;20450;-70
2022/09/11 15:28:02;;;;;;;4.50;4.10;;;23.40;99.90;;;;;;5030838;28;20485;-68
2022/09/11 15:30:30;;;;;;;6.20;5.67;;;23.40;99.90;;;;;;5034149;28;20480;-69
2022/09/11 15:32:57;;;;;;;4.97;4.57;;;23.40;99.90;;;;;;5034789;28;20526;-69
2022/09/11 15:35:24;;;;;;;5.13;4.70;;;23.40;99.90;;;;;;5034244;28;20531;-68
2022/09/11 15:37:53;;;;;;;3.10;2.90;;;23.40;99.90;;;;;;5033984;28;20535;-67
2022/09/11 15:40:20;;;;;;;5.10;4.63;;;23.40;99.90;;;;;;5033624;28;20457;-69
2022/09/11 15:42:48;;;;;;;5.47;4.97;;;23.40;99.90;;;;;;5033885;28;20473;-67
2022/09/11 15:45:16;;;;;;;4.20;3.80;;;23.40;99.90;;;;;;5034470;28;20449;-68
2022/09/11 15:47:44;;;;;;;4.60;4.20;;;23.40;99.90;;;;;;5033625;28;20442;-66
2022/09/11 15:50:11;;;;;;;4.67;4.30;;;23.40;99.90;;;;;;5034433;28;20476;-67
2022/09/11 15:52:39;;;;;;;5.10;4.70;;;23.40;99.90;;;;;;5038283;28;20465;-68
2022/09/11 15:55:08;;;;;;;4.20;3.70;;;23.40;99.90;;;;;;5038174;28;20457;-67
2022/09/11 15:57:35;;;;;;;4.67;4.27;;;23.40;99.90;;;;;;5036982;28;20441;-69
2022/09/11 16:00:04;;;;;;;3.80;3.50;;;23.40;99.90;;;;;;5035235;28;20854;-68
2022/09/11 16:02:30;;;;;;;6.03;4.20;;;23.50;99.90;;;;;;5033789;28;20500;-66
2022/09/11 16:04:59;;;;;;;4.90;4.50;;;23.50;99.90;;;;;;5035037;28;20484;-67
2022/09/11 16:07:26;;;;;;;4.87;4.50;;;23.50;99.90;;;;;;5034799;28;20452;-65
2022/09/11 16:09:55;;;;;;;7.70;4.70;;;23.50;99.90;;;;;;5034062;28;20444;-65
2022/09/11 16:12:21;;;;;;;3.93;3.67;;;23.50;99.90;;;;;;5034731;28;20512;-66
2022/09/11 16:14:49;;;;;;;6.57;3.77;;;23.50;99.90;;;;;;5032999;28;20524;-70
2022/09/11 16:17:19;;;;;;;5.10;4.60;;;23.50;99.90;;;;;;5031191;28;20507;-69
2022/09/11 16:19:46;;;;;;;5.20;4.37;;;23.50;99.90;;;;;;5033772;28;20484;-67
2022/09/11 16:22:14;;;;;;;6.20;4.50;;;23.50;99.90;;;;;;5033677;28;20457;-64
2022/09/11 16:24:41;;;;;;;4.47;4.10;;;23.50;99.90;;;;;;5033027;28;20488;-68
2022/09/11 16:27:09;;;;;;;4.17;3.87;;;23.50;99.90;;;;;;5032603;28;20449;-68
2022/09/11 16:29:37;;;;;;;4.67;4.27;;;23.60;99.90;;;;;;5032883;28;20455;-67
2022/09/11 16:32:04;;;;;;;6.10;4.70;;;23.60;99.90;;;;;;5032595;28;20845;-67
2022/09/11 16:34:32;;;;;;;6.97;4.30;;;23.60;99.90;;;;;;5032735;28;20878;-67
2022/09/11 16:36:59;;;;;;;4.83;4.43;;;23.60;99.90;;;;;;5032761;28;20520;-65
2022/09/11 16:39:27;;;;;;;3.83;3.53;;;23.60;99.90;;;;;;5032632;28;21064;-65
2022/09/11 16:41:54;;;;;;;6.30;4.33;;;23.60;99.90;;;;;;5032347;28;20441;-63
2022/09/11 16:44:22;;;;;;;5.50;5.10;;;23.60;99.90;;;;;;5032733;28;20480;-64
2022/09/11 16:46:48;;;;;;;4.90;4.20;;;23.60;99.90;;;;;;5032715;28;20453;-65
2022/09/11 16:49:17;;;;;;;4.73;4.43;;;23.60;99.90;;;;;;5032928;28;20536;-63
2022/09/11 16:51:46;;;;;;;4.60;4.20;;;23.60;99.90;;;;;;5032051;28;20517;-63
2022/09/11 16:54:13;;;;;;;5.10;4.37;;;23.60;99.90;;;;;;5032366;28;20507;-64
2022/09/11 16:56:41;;;;;;;4.37;4.07;;;23.60;99.90;;;;;;5032505;28;21011;-63
2022/09/11 16:59:08;;;;;;;5.43;4.83;;;23.60;99.90;;;;;;5032436;28;20510;-63
2022/09/11 17:01:36;;;;;;;5.70;5.17;;;23.60;99.90;;;;;;5032110;28;20444;-63
2022/09/11 17:04:03;;;;;;;5.13;4.73;;;23.60;99.90;;;;;;5032131;28;21009;-64
2022/09/11 17:06:31;;;;;;;4.30;4.00;;;23.60;99.90;;;;;;5032428;28;20507;-63
2022/09/11 17:08:59;;;;;;;4.50;4.10;;;23.60;99.90;;;;;;5032379;28;20449;-63
2022/09/11 17:11:27;;;;;;;4.17;3.87;;;23.60;99.90;;;;;;5032275;28;20507;-62
2022/09/11 17:13:56;;;;;;;4.27;3.90;;;23.60;99.90;;;;;;5031889;28;20471;-64
2022/09/11 17:16:25;;;;;;;3.80;3.60;;;23.60;99.90;;;;;;5031927;28;20944;-64
2022/09/11 17:18:55;;;;;;;7.50;4.30;;;23.60;99.90;;;;;;5031953;28;20488;-64
2022/09/11 17:21:24;;;;;;;5.20;4.73;;;23.60;99.90;;;;;;5031697;28;20930;-64
2022/09/11 17:23:52;;;;;;;4.30;3.90;;;23.60;99.90;;;;;;5031811;28;20496;-65
2022/09/11 17:26:20;;;;;;;4.43;4.10;;;23.60;99.90;;;;;;5031659;28;21105;-62
2022/09/11 17:28:49;;;;;;;4.50;4.20;;;23.60;99.90;;;;;;5031749;28;20441;-65
2022/09/11 17:31:19;;;;;;;4.10;3.80;;;23.60;99.90;;;;;;5031694;28;20222;-63
2022/09/11 17:33:46;;;;;;;4.10;3.80;;;23.70;99.90;;;;;;5031758;28;20547;-59
2022/09/11 17:36:16;;;;;;;4.70;4.40;;;23.70;99.90;;;;;;5031749;28;20564;-68
2022/09/11 17:38:44;;;;;;;4.07;3.77;;;23.70;99.90;;;;;;5031903;28;20445;-63
2022/09/11 17:41:11;;;;;;;3.50;3.27;;;23.70;99.90;;;;;;5031597;28;20531;-67
2022/09/11 17:43:39;;;;;;;4.67;3.70;;;23.70;99.90;;;;;;5031987;28;20826;-66
2022/09/11 17:46:09;;;;;;;3.70;3.40;;;23.70;99.90;;;;;;5032827;28;20491;-66
2022/09/11 17:48:38;;;;;;;5.73;3.50;;;23.70;99.90;;;;;;5034157;28;20938;-68
2022/09/11 17:51:08;;;;;;;3.77;3.50;;;23.70;99.90;;;;;;5034504;28;20455;-66
2022/09/11 17:53:37;;;;;;;4.60;3.70;;;23.70;99.90;;;;;;5032685;28;20461;-67
2022/09/11 17:56:06;;;;;;;18.10;5.13;;;23.70;99.90;;;;;;5031665;28;20456;-66
2022/09/11 17:58:33;;;;;;;13.70;5.47;;;23.70;99.90;;;;;;5031491;28;20495;-67
2022/09/11 18:01:01;;;;;;;4.10;3.80;;;23.70;99.90;;;;;;5031121;28;20453;-67
2022/09/11 18:03:29;;;;;;;3.90;2.93;;;23.70;99.90;;;;;;5031360;28;21020;-67
2022/09/11 18:06:00;;;;;;;4.60;3.10;;;23.70;99.90;;;;;;5031431;28;20449;-66
2022/09/11 18:08:28;;;;;;;6.27;4.07;;;23.70;99.90;;;;;;5031523;28;20965;-67
2022/09/11 18:10:58;;;;;;;9.87;6.00;;;23.70;99.90;;;;;;5030899;28;20859;-67
2022/09/11 18:13:26;;;;;;;6.10;4.40;;;23.70;99.90;;;;;;5031348;28;20468;-67
2022/09/11 18:15:54;;;;;;;4.20;3.63;;;23.70;99.90;;;;;;5031546;28;20858;-68
2022/09/11 18:18:22;;;;;;;6.57;4.40;;;23.70;99.90;;;;;;5031482;28;20566;-64
2022/09/11 18:20:52;;;;;;;6.30;4.43;;;23.70;99.90;;;;;;5030929;28;20445;-66
2022/09/11 18:23:22;;;;;;;7.17;4.23;;;23.70;99.90;;;;;;5031300;28;20457;-68
2022/09/11 18:25:50;;;;;;;6.00;4.40;;;23.70;99.90;;;;;;5031390;28;20452;-66
2022/09/11 18:28:18;;;;;;;4.30;4.00;;;23.70;99.90;;;;;;5031247;28;20455;-67
2022/09/11 18:30:46;;;;;;;4.90;3.70;;;23.70;99.90;;;;;;5031206;28;20472;-67
2022/09/11 18:33:15;;;;;;;5.13;4.03;;;23.60;99.90;;;;;;5030757;28;20564;-66
2022/09/11 18:35:42;;;;;;;4.30;4.00;;;23.70;99.90;;;;;;5031135;28;20460;-66
2022/09/11 18:38:10;;;;;;;4.17;3.77;;;23.70;99.90;;;;;;5033852;28;20861;-67
2022/09/11 18:40:38;;;;;;;4.70;4.30;;;23.60;99.90;;;;;;5033875;28;20445;-66
2022/09/11 18:43:07;;;;;;;4.03;3.50;;;23.70;99.90;;;;;;5031383;28;20556;-66
2022/09/11 18:45:35;;;;;;;5.43;4.17;;;23.60;99.90;;;;;;5034949;28;20449;-66
2022/09/11 18:48:03;;;;;;;4.37;3.97;;;23.60;99.90;;;;;;5034867;28;20457;-65
2022/09/11 18:50:30;;;;;;;6.13;3.80;;;23.70;99.90;;;;;;5034373;28;20449;-66
2022/09/11 18:52:57;;;;;;;4.03;3.50;;;23.60;99.90;;;;;;5034676;28;20492;-67
2022/09/11 18:55:24;;;;;;;3.83;3.53;;;23.60;99.90;;;;;;5034751;28;20484;-66
2022/09/11 18:57:52;;;;;;;8.83;4.13;;;23.60;99.90;;;;;;5034602;28;20440;-66
2022/09/11 19:00:21;;;;;;;3.60;3.40;;;23.60;99.90;;;;;;5034196;28;20531;-67
2022/09/11 19:02:49;;;;;;;4.20;3.90;;;23.70;99.90;;;;;;5034335;28;21020;-67
2022/09/11 19:05:16;;;;;;;4.87;3.90;;;23.70;99.90;;;;;;5034564;28;20456;-67
2022/09/11 19:07:44;;;;;;;5.67;4.00;;;23.70;99.90;;;;;;5034684;28;20445;-67
2022/09/11 19:10:12;;;;;;;4.20;3.47;;;23.70;99.90;;;;;;5034465;28;20449;-67
2022/09/11 19:12:39;;;;;;;4.13;3.60;;;23.70;99.90;;;;;;5034366;28;20488;-68
2022/09/11 19:15:09;;;;;;;4.67;4.27;;;23.70;99.90;;;;;;5034774;28;20528;-68
2022/09/11 19:17:36;;;;;;;3.83;3.47;;;23.70;99.90;;;;;;5034305;28;20532;-67
2022/09/11 19:20:04;;;;;;;6.07;4.40;;;23.70;99.90;;;;;;5034635;28;20442;-67
2022/09/11 19:22:31;;;;;;;3.90;3.60;;;23.70;99.90;;;;;;5035248;28;20471;-67
2022/09/11 19:24:58;;;;;;;4.63;4.23;;;23.70;99.90;;;;;;5035093;28;20445;-67
2022/09/11 19:27:26;;;;;;;3.40;3.20;;;23.70;99.90;;;;;;5034895;28;20445;-66
2022/09/11 19:29:53;;;;;;;4.00;3.80;;;23.70;99.90;;;;;;5034499;28;20815;-66
2022/09/11 19:32:23;;;;;;;4.53;4.13;;;23.70;99.90;;;;;;5034251;28;21076;-66
2022/09/11 19:34:50;;;;;;;4.90;3.70;;;23.70;99.90;;;;;;5034231;28;20472;-65
2022/09/11 19:37:18;;;;;;;4.43;4.03;;;23.70;99.90;;;;;;5034559;28;20512;-66
2022/09/11 19:39:47;;;;;;;4.87;4.50;;;23.70;99.90;;;;;;5034947;28;20449;-65
2022/09/11 19:42:14;;;;;;;4.57;3.73;;;23.70;99.90;;;;;;5033621;28;20552;-65
2022/09/11 19:44:41;;;;;;;4.73;3.73;;;23.60;99.90;;;;;;5033765;28;20453;-65
2022/09/11 19:47:08;;;;;;;4.60;4.20;;;23.60;99.90;;;;;;5033898;28;20531;-65
2022/09/11 19:49:37;;;;;;;4.07;3.30;;;23.70;99.90;;;;;;5034312;28;20445;-66
2022/09/11 19:52:04;;;;;;;5.80;5.20;;;23.60;99.90;;;;;;5034066;28;20563;-66
